Pagrindinis puslapis
METAR-TAF:

METAR-TAF

Oro uostai :

Kirkenesas, Norvegija

platuma: 69-44N, ilguma: 029-54E, Aukštis: 9 m

Dabartinis oras

Ataskaita buvo paskelbta 23 minutes, ne 09:50 UTC
Vėjas 8 kt iš Pietryčių
Temperatūra -14°C
Drėgmė 72%
Slėgis 1001 hPa
Matomumas 10 km arba daugiau
Mažai debesys ne aukštis 2000 ft
Su prošvaistėmis ne aukštis 3200 ft

METAR: ENKR 240950Z 13008KT 9999 FEW020 BKN032 M14/M18 Q1001 RMK WIND 731FT 11013KT

Laikas: 11:13 (10:13 UTC)

Prognozė

Ataskaita buvo paskelbta 2 valandos ir 13 minutes, ne 08:00 UTC
Prognozė galioja nuo 24 metu 09 UTC su 24 metu 18 UTC
Vėjas 8 kt iš Pietų/Pietryčių
Matomumas 10 km arba daugiau
Mažai debesys ne aukštis 1000 ft
Su prošvaistėmis ne aukštis 3000 ft
Laikinai
nuo 24 metu 10 UTC su 24 metu 18 UTC
Matomumas: 3000 m
Su prošvaistėmis ne aukštis 800 ft
sniegas

TAF: ENKR 240800Z 2409/2418 16008KT 9999 FEW010 BKN030 TEMPO 2410/2418 3000 -SN BKN008

Orai ataskaitas ir orų prognozės (METAR, TAF).

turimą stotys yra geltonos ir raudonos taškus žemėlapyje.

Perkelti pele per norėdami pamatyti stoties vardą.

Tada spustelėkite, norėdami matyti oro stebėjimo ir prognozės.

Norėdami pakeisti žemėlapį: spustelėkite ant žalios mygtukų su juodo kryžiaus žemyn,; žalią mygtuką su brūkšneliu, jei norite nutolinti; arba žalių rodyklių gretimoms žemėlapius.


METAR-TAF: